Terminal Aerodrome Forecast
Issued by NWS

Home | Current Version | Previous Version | Text Only | Print | Product List | Glossary On
Versions: 1 2 3 4 5 6 7 8 9 10 11 12 13 14 15 16 17 18 19 20 21 22 23 24 25 26 27 28 29 30 31 32 33 34 35 36 37 38 39 40 41 42 43 44 45 46 47 48 49 50
000
FTUS45 KBOU 011417 AAB
TAFBJC
TAF AMD
KBJC 011417Z 0114/0212 33006KT 5SM BR SCT020 BKN120
      TEMPO 0114/0116 3SM BR BKN020
     FM011600 VRB04KT P6SM SCT007 BKN012
     FM012000 36006KT P6SM SCT015 BKN030
     FM020100 33005KT P6SM VCSH SCT015 BKN030
      TEMPO 0201/0205 3SM -SN BR OVC015
     FM020500 31005KT P6SM VCSH BKN015=

USA.gov is the U.S. government's official web portal to all federal, state and local government web resources and services.